Time;durP1;ratioP1;P1;durP2;ratioP2;P2;SDS_P1;SDS_P2;PMS_P1;PMS_P2;Temp;Humidity;BMP_temperature;BMP_pressure;BME280_temperature;BME280_humidity;BME280_pressure;Samples;Min_cycle;Max_cycle;Signal;HPM_P1;HPM_P2
2023/07/18 00:04:25;;;;;;;2.10;1.63;;;;;;;19.87;43.21;100348.78;10388430;28;20976;-34
2023/07/18 00:09:27;;;;;;;2.97;1.80;;;;;;;20.66;41.06;100321.28;10374049;28;20715;-34
2023/07/18 00:14:29;;;;;;;3.85;1.85;;;;;;;21.30;41.41;100298.66;10350738;28;20254;-34
2023/07/18 00:19:33;;;;;;;9.02;2.22;;;;;;;22.34;39.85;100300.13;10353912;28;20260;-34
2023/07/18 00:24:34;;;;;;;4.55;2.33;;;;;;;21.53;40.65;100314.06;10346852;28;20760;-34
2023/07/18 00:29:36;;;;;;;2.63;2.00;;;;;;;21.38;41.96;100289.31;10349722;28;20421;-34
2023/07/18 00:34:40;;;;;;;3.85;1.90;;;;;;;21.92;40.99;100294.28;10350865;28;20281;-34
2023/07/18 00:39:42;;;;;;;1.67;1.58;;;;;;;21.09;41.77;100353.72;10367598;28;20236;-34
2023/07/18 00:44:44;;;;;;;2.40;1.45;;;;;;;20.72;42.76;100322.25;10368982;28;20817;-34
2023/07/18 00:49:46;;;;;;;1.35;1.25;;;;;;;20.84;42.20;100339.38;10348242;28;20283;-34
2023/07/18 00:54:48;;;;;;;2.55;2.25;;;;;;;21.66;41.12;100312.94;10366254;28;20243;-34
2023/07/18 00:59:50;;;;;;;3.70;1.95;;;;;;;21.45;41.28;100333.53;10369416;28;20748;-33
2023/07/18 01:04:52;;;;;;;2.60;1.70;;;;;;;20.31;43.19;100321.31;10348773;28;20237;-34
2023/07/18 01:10:12;;;;;;;2.72;1.98;;;;;;;21.37;42.08;100302.09;10347788;28;20233;-34
2023/07/18 01:15:14;;;;;;;5.35;2.00;;;;;;;16.42;49.28;100252.22;10351032;28;20229;-33
2023/07/18 01:20:23;;;;;;;3.00;2.00;;;;;;;15.50;49.89;100309.50;10349239;28;20229;-34
2023/07/18 01:25:26;;;;;;;5.67;2.20;;;;;;;17.16;46.70;100179.75;10348807;28;20232;-34
2023/07/18 01:30:29;;;;;;;3.27;1.97;;;;;;;17.51;44.71;100230.66;10348243;28;20229;-33
2023/07/18 01:35:32;;;;;;;2.87;2.00;;;;;;;18.75;42.73;100208.22;10347917;28;20237;-33
2023/07/18 01:40:34;;;;;;;3.00;1.90;;;;;;;17.52;44.08;100302.69;10346899;28;20241;-33
2023/07/18 01:45:37;;;;;;;2.87;1.80;;;;;;;19.01;42.04;100258.56;10349109;28;20921;-33
2023/07/18 01:50:39;;;;;;;1.97;1.40;;;;;;;16.72;45.25;100348.97;10348866;28;20232;-33
2023/07/18 01:55:41;;;;;;;3.13;1.90;;;;;;;18.72;42.70;100292.69;10344828;28;20325;-34
2023/07/18 02:00:43;;;;;;;2.93;2.00;;;;;;;19.63;41.48;100262.91;10347774;28;20626;-34
2023/07/18 02:05:45;;;;;;;2.60;1.80;;;;;;;19.47;42.22;100284.22;10347504;28;20608;-33
2023/07/18 02:10:46;;;;;;;2.27;2.03;;;;;;;19.73;41.73;100339.19;10350314;28;20233;-34
2023/07/18 02:15:48;;;;;;;3.00;2.00;;;;;;;20.35;41.23;100318.97;10346842;28;20725;-34
2023/07/18 02:20:50;;;;;;;3.65;1.83;;;;;;;19.82;42.27;100337.78;10344589;28;20237;-34
2023/07/18 02:25:53;;;;;;;3.28;1.80;;;;;;;20.30;41.66;100328.66;10345445;28;20708;-34
2023/07/18 02:30:55;;;;;;;4.10;1.95;;;;;;;19.90;41.34;100323.88;10345545;28;20237;-34
2023/07/18 02:35:57;;;;;;;3.45;2.30;;;;;;;18.80;41.91;100396.22;10345705;28;20242;-34
2023/07/18 02:40:58;;;;;;;3.70;2.60;;;;;;;19.78;40.86;100325.75;10340612;28;20315;-34
2023/07/18 02:46:00;;;;;;;3.95;2.35;;;;;;;19.86;40.95;100319.16;10346154;28;20237;-34
2023/07/18 02:51:02;;;;;;;3.28;2.47;;;;;;;19.20;41.31;100392.28;10341886;28;20619;-34
2023/07/18 02:56:04;;;;;;;2.40;2.20;;;;;;;19.02;41.58;100384.97;10346594;28;22116;-34
2023/07/18 03:01:07;;;;;;;5.28;2.38;;;;;;;17.99;43.00;100364.66;10341400;28;20233;-33
2023/07/18 03:06:09;;;;;;;3.42;2.50;;;;;;;18.31;42.71;100346.47;10343308;28;20222;-34
2023/07/18 03:11:11;;;;;;;4.28;2.65;;;;;;;18.13;43.08;100333.69;10342991;28;20276;-34
2023/07/18 03:16:13;;;;;;;4.20;2.43;;;;;;;18.63;42.20;100328.22;10345474;28;20248;-34
2023/07/18 03:21:16;;;;;;;3.63;2.30;;;;;;;19.15;41.84;100310.75;10341010;28;20237;-34
2023/07/18 03:26:18;;;;;;;3.97;2.30;;;;;;;19.88;41.18;100301.56;10346411;28;20251;-34
2023/07/18 03:31:20;;;;;;;2.70;2.00;;;;;;;20.11;40.94;100310.81;10339711;28;20265;-34
2023/07/18 03:36:22;;;;;;;3.47;2.27;;;;;;;19.72;41.42;100329.38;10346891;28;20608;-34
2023/07/18 03:41:24;;;;;;;7.30;2.30;;;;;;;19.24;41.94;100341.94;10338100;28;20304;-34
2023/07/18 03:46:26;;;;;;;3.70;2.00;;;;;;;18.52;43.24;100309.19;10344831;28;20241;-34
2023/07/18 03:51:28;;;;;;;3.17;2.07;;;;;;;17.15;45.14;100299.78;10343342;28;20233;-34
2023/07/18 03:56:38;;;;;;;4.87;2.03;;;;;;;19.19;42.54;100255.81;10341490;28;20756;-34
2023/07/18 04:01:39;;;;;;;3.37;2.07;;;;;;;18.34;43.48;100291.88;10339323;28;20244;-34
2023/07/18 04:06:43;;;;;;;3.33;2.70;;;;;;;17.22;45.35;100283.50;10338977;28;20697;-34
2023/07/18 04:11:46;;;;;;;3.13;2.60;;;;;;;16.39;46.24;100352.56;10344747;28;21127;-34
2023/07/18 04:16:47;;;;;;;4.33;2.53;;;;;;;15.83;47.60;100314.13;10349903;28;20229;-34
2023/07/18 04:21:49;;;;;;;5.10;2.60;;;;;;;18.51;43.76;100193.69;10347373;28;20961;-34
2023/07/18 04:26:51;;;;;;;3.83;2.57;;;;;;;18.04;43.90;100284.41;10344555;28;20245;-34
2023/07/18 04:31:53;;;;;;;4.50;2.87;;;;;;;17.19;45.24;100303.69;10347258;28;20240;-34
2023/07/18 04:36:55;;;;;;;5.30;3.07;;;;;;;16.32;47.05;100308.53;10346980;28;20230;-34
2023/07/18 04:41:57;;;;;;;3.33;2.77;;;;;;;16.53;47.03;100251.53;10347459;28;20237;-34
2023/07/18 04:46:59;;;;;;;5.03;3.40;;;;;;;15.81;48.16;100270.34;10349412;28;20247;-34
2023/07/18 04:52:01;;;;;;;5.13;3.30;;;;;;;14.99;49.47;100301.84;10346167;28;23403;-34
2023/07/18 04:57:03;;;;;;;3.53;2.83;;;;;;;15.96;48.53;100228.78;10349042;28;20329;-33
2023/07/18 05:02:07;;;;;;;4.40;3.13;;;;;;;15.35;49.63;100237.88;10349671;28;20233;-33
2023/07/18 05:07:09;;;;;;;6.90;2.60;;;;;;;15.82;49.51;100177.53;10345894;28;20253;-33
2023/07/18 05:12:11;;;;;;;3.43;2.83;;;;;;;16.15;49.19;100159.63;10350566;28;20257;-33
2023/07/18 05:17:13;;;;;;;4.97;2.77;;;;;;;17.89;46.00;100186.44;10388433;28;20221;-33
2023/07/18 05:22:14;;;;;;;5.33;3.13;;;;;;;17.46;46.44;100271.06;10387752;28;20213;-33
2023/07/18 05:27:17;;;;;;;4.47;2.80;;;;;;;16.45;48.25;100246.41;10389580;28;20243;-33
2023/07/18 05:32:19;;;;;;;3.17;2.70;;;;;;;16.10;48.73;100245.81;10389047;28;20220;-33
2023/07/18 05:37:24;;;;;;;3.60;2.67;;;;;;;16.34;48.18;100265.94;10388658;28;20737;-33
2023/07/18 05:42:26;;;;;;;2.60;2.40;;;;;;;15.92;49.12;100284.22;10388552;28;20259;-33
2023/07/18 05:47:28;;;;;;;5.53;2.60;;;;;;;17.14;47.30;100235.91;10362076;28;20240;-33
2023/07/18 05:52:30;;;;;;;4.87;2.93;;;;;;;16.83;48.20;100209.66;10385580;28;21067;-33
2023/07/18 05:57:32;;;;;;;5.57;3.00;;;;;;;16.80;48.25;100208.19;10387730;28;20762;-33
2023/07/18 06:02:34;;;;;;;4.00;2.93;;;;;;;16.62;47.99;100292.69;10387714;28;20213;-33
2023/07/18 06:07:36;;;;;;;2.43;2.20;;;;;;;18.10;46.25;100182.47;10385990;28;20252;-33
2023/07/18 06:12:38;;;;;;;4.93;3.03;;;;;;;17.88;46.03;100234.38;10386625;28;20610;-33
2023/07/18 06:17:40;;;;;;;3.73;2.60;;;;;;;18.07;46.08;100246.03;10382398;28;20623;-33
2023/07/18 06:22:44;;;;;;;3.23;2.60;;;;;;;17.38;46.78;100285.72;10346650;28;20635;-35
2023/07/18 06:27:46;;;;;;;3.43;2.17;;;;;;;17.92;46.30;100242.88;10342871;28;20237;-35
2023/07/18 06:32:48;;;;;;;2.70;1.90;;;;;;;18.39;45.68;100236.97;10343006;28;20261;-33
2023/07/18 06:37:50;;;;;;;3.37;2.40;;;;;;;17.97;46.06;100290.94;10346845;28;20248;-33
2023/07/18 06:42:52;;;;;;;3.70;2.40;;;;;;;18.98;44.72;100289.69;10343922;28;20710;-33
2023/07/18 06:47:53;;;;;;;3.40;2.33;;;;;;;18.44;45.14;100300.28;10339954;28;20241;-35
2023/07/18 06:52:55;;;;;;;4.00;2.40;;;;;;;20.67;42.39;100235.13;10345150;28;20264;-33
2023/07/18 06:57:57;;;;;;;4.03;2.42;;;;;;;19.32;44.21;100267.53;10344732;28;20237;-33
2023/07/18 07:02:59;;;;;;;3.60;2.25;;;;;;;20.52;43.30;100197.59;10346712;28;20229;-36
2023/07/18 07:08:01;;;;;;;3.20;2.35;;;;;;;19.79;43.17;100272.25;10345387;28;20712;-33
2023/07/18 07:13:03;;;;;;;3.40;2.20;;;;;;;19.24;44.07;100260.53;10343687;28;20232;-34
2023/07/18 07:18:06;;;;;;;3.90;2.13;;;;;;;20.01;42.79;100262.47;10344584;28;20248;-33
2023/07/18 07:23:07;;;;;;;2.40;1.98;;;;;;;19.79;42.62;100277.69;10341879;28;20245;-33
2023/07/18 07:28:09;;;;;;;2.45;1.85;;;;;;;21.20;41.89;100189.63;10350056;28;20245;-33
2023/07/18 07:33:12;;;;;;;2.03;1.67;;;;;;;21.22;41.27;100204.63;10343543;28;20217;-33
2023/07/18 07:38:14;;;;;;;2.30;2.00;;;;;;;20.23;41.40;100289.09;10343864;28;20237;-33
2023/07/18 07:43:16;;;;;;;5.75;2.22;;;;;;;21.79;40.69;100181.84;10346145;28;20292;-34
2023/07/18 07:48:18;;;;;;;3.95;2.17;;;;;;;20.18;41.83;100245.50;10353614;28;20221;-34
2023/07/18 07:53:20;;;;;;;2.35;1.95;;;;;;;20.58;41.29;100255.59;10354552;28;20229;-33
2023/07/18 07:58:22;;;;;;;3.20;2.05;;;;;;;20.36;41.33;100218.16;10353813;28;20249;-33
2023/07/18 08:03:23;;;;;;;6.43;2.17;;;;;;;22.24;40.16;100157.44;10353369;28;20729;-34
2023/07/18 08:08:25;;;;;;;4.40;2.10;;;;;;;20.61;41.37;100239.63;10351470;28;20237;-34
2023/07/18 08:13:28;;;;;;;4.55;1.80;;;;;;;21.13;40.00;100236.03;10353528;28;20272;-33
2023/07/18 08:18:29;;;;;;;2.63;1.73;;;;;;;22.89;39.34;100140.16;10361191;28;20237;-33
2023/07/18 08:23:31;;;;;;;2.78;2.13;;;;;;;22.00;39.64;100159.56;10381305;28;20257;-33
2023/07/18 08:28:33;;;;;;;4.75;2.13;;;;;;;22.50;39.61;100178.50;10359844;28;20263;-32
2023/07/18 08:33:35;;;;;;;3.53;1.83;;;;;;;21.11;40.48;100223.75;10391957;28;20558;-33
2023/07/18 08:38:37;;;;;;;2.70;2.00;;;;;;;22.08;39.32;100217.19;10391481;28;20283;-33
2023/07/18 08:43:38;;;;;;;1.88;1.42;;;;;;;23.56;37.98;100109.84;10388816;28;20263;-33
2023/07/18 08:48:44;;;;;;;2.65;1.92;;;;;;;22.23;38.65;100196.66;10389926;28;20797;-33
2023/07/18 08:53:46;;;;;;;3.17;1.85;;;;;;;23.47;37.80;100117.72;10390494;28;20751;-32
2023/07/18 08:58:48;;;;;;;2.97;1.90;;;;;;;24.21;38.03;100085.88;10373632;28;20233;-33
2023/07/18 09:03:51;;;;;;;3.60;2.05;;;;;;;23.03;38.25;100148.75;10350306;28;20323;-33
2023/07/18 09:08:57;;;;;;;3.85;1.85;;;;;;;23.48;37.63;100121.25;10349691;28;20654;-33
2023/07/18 09:13:59;;;;;;;6.40;2.40;;;;;;;25.14;36.79;100075.88;10346861;28;20399;-33
2023/07/18 09:19:02;;;;;;;3.20;2.05;;;;;;;23.75;37.34;100151.22;10342922;28;20249;-33
2023/07/18 09:24:04;;;;;;;4.72;2.10;;;;;;;24.26;36.96;100132.38;10347237;28;20601;-33
2023/07/18 09:29:10;;;;;;;2.65;1.55;;;;;;;23.47;36.73;100212.47;10347867;28;20268;-33
2023/07/18 09:34:12;;;;;;;2.05;1.77;;;;;;;24.53;35.94;100115.75;10344100;28;20726;-33
2023/07/18 09:39:14;;;;;;;3.75;2.10;;;;;;;25.92;34.98;100164.25;10349184;28;20237;-33
2023/07/18 09:44:17;;;;;;;4.40;1.92;;;;;;;24.76;35.93;100231.28;10364103;28;20267;-33
2023/07/18 09:49:36;;;;;;;4.18;2.00;;;;;;;25.81;34.23;100185.38;10367681;28;20233;-34
2023/07/18 09:54:43;;;;;;;3.45;1.88;;;;;;;23.83;37.15;100161.66;10346508;28;20236;-33
2023/07/18 09:59:48;;;;;;;3.70;1.90;;;;;;;24.81;36.43;100091.75;10346435;28;20307;-34
2023/07/18 10:04:50;;;;;;;4.55;1.70;;;;;;;23.76;36.63;100079.94;10348954;28;20237;-34
2023/07/18 10:09:52;;;;;;;2.90;2.05;;;;;;;25.14;36.72;99969.09;10346167;28;20241;-34
2023/07/18 10:14:59;;;;;;;2.80;2.13;;;;;;;25.17;36.89;99907.47;10347598;28;20229;-34
2023/07/18 10:20:31;;;;;;;3.80;1.80;;;;;;;22.42;38.56;99933.56;10344875;28;20237;-34
2023/07/18 10:25:37;;;;;;;2.75;1.77;;;;;;;23.29;38.29;99925.13;10374002;28;20232;-33
2023/07/18 10:30:44;;;;;;;2.10;1.60;;;;;;;24.27;36.96;99933.59;10385341;28;20238;-35
2023/07/18 10:35:48;;;;;;;2.47;1.73;;;;;;;23.02;38.25;100075.31;10386172;28;20255;-35
2023/07/18 10:40:52;;;;;;;1.58;1.45;;;;;;;24.97;36.21;100042.47;10383583;28;20743;-36
2023/07/18 10:45:54;;;;;;;3.85;1.88;;;;;;;25.28;35.20;100032.31;10385064;28;20244;-35
2023/07/18 10:50:56;;;;;;;3.55;2.10;;;;;;;26.35;34.11;100042.03;10385382;28;20220;-35
2023/07/18 10:55:57;;;;;;;2.50;1.80;;;;;;;26.56;34.67;100094.81;10383086;28;20909;-36
2023/07/18 11:06:21;;;;;;;4.35;1.83;;;;;;;22.59;37.96;100038.94;10400021;27;20825;-67
2023/07/18 11:11:23;;;;;;;2.92;2.00;;;;;;;24.25;37.29;100058.81;10356528;28;20365;-68
2023/07/18 11:16:25;;;;;;;4.07;2.03;;;;;;;24.80;36.10;99999.81;10361136;28;20241;-67
2023/07/18 11:21:28;;;;;;;3.35;1.60;;;;;;;24.85;35.82;100005.28;10397950;28;20223;-68
2023/07/18 11:26:29;;;;;;;4.30;2.22;;;;;;;24.40;35.92;99962.31;10397476;28;20251;-67
2023/07/18 11:31:42;;;;;;;2.85;1.67;;;;;;;24.17;37.12;99978.16;10397421;28;20719;-67
2023/07/18 11:36:47;;;;;;;4.63;1.70;;;;;;;25.88;35.63;99889.91;10399766;28;20933;-67
2023/07/18 11:41:51;;;;;;;3.45;1.92;;;;;;;25.33;36.24;99921.97;10396388;28;20233;-69
2023/07/18 11:46:54;;;;;;;4.07;2.00;;;;;;;25.03;36.64;99896.31;10392919;28;20240;-67
2023/07/18 11:51:56;;;;;;;4.00;1.80;;;;;;;25.27;36.33;99848.06;10394928;28;20278;-67
2023/07/18 11:56:58;;;;;;;2.85;1.92;;;;;;;25.40;36.07;99873.16;10390366;28;20290;-68
2023/07/18 12:02:01;;;;;;;2.83;1.92;;;;;;;24.74;35.57;99877.78;10388304;28;20826;-69
2023/07/18 12:07:03;;;;;;;5.85;1.98;;;;;;;25.93;34.06;99850.63;10389483;28;20237;-67
2023/07/18 12:12:05;;;;;;;4.95;2.03;;;;;;;24.88;35.19;99809.59;10389743;28;20238;-67
2023/07/18 12:17:08;;;;;;;2.92;2.25;;;;;;;26.11;34.81;99849.94;10363519;28;20287;-69
2023/07/18 12:22:13;;;;;;;3.22;1.70;;;;;;;26.11;34.61;99865.56;10358043;28;20233;-70
2023/07/18 12:27:15;;;;;;;2.17;1.73;;;;;;;25.33;35.24;99876.22;10313205;28;20245;-70
2023/07/18 12:32:16;;;;;;;3.53;1.65;;;;;;;26.47;34.88;99852.38;10322644;28;20195;-67
2023/07/18 12:37:19;;;;;;;3.08;2.08;;;;;;;24.99;35.54;99889.75;10326113;28;20225;-67
2023/07/18 12:42:21;;;;;;;4.80;2.08;;;;;;;26.33;35.13;99837.72;10324411;28;20254;-67
2023/07/18 12:47:22;;;;;;;3.97;1.58;;;;;;;24.77;36.07;99824.44;10322534;28;20233;-68
2023/07/18 12:52:24;;;;;;;2.85;1.88;;;;;;;26.80;34.77;99755.72;10321840;28;20206;-67
2023/07/18 12:57:26;;;;;;;3.28;1.60;;;;;;;26.08;34.96;99787.47;10324026;28;20324;-67
2023/07/18 13:02:31;;;;;;;2.15;1.40;;;;;;;26.55;34.82;99749.41;10324497;28;20316;-69
2023/07/18 13:07:33;;;;;;;4.15;1.80;;;;;;;27.22;34.61;99760.34;10329060;28;20260;-67
2023/07/18 13:12:35;;;;;;;2.45;1.80;;;;;;;27.07;34.24;99788.81;10325851;28;20246;-67
2023/07/18 13:17:37;;;;;;;4.07;2.08;;;;;;;26.72;34.52;99825.75;10322021;28;20273;-67
2023/07/18 13:22:39;;;;;;;2.38;1.75;;;;;;;26.91;34.65;99790.97;10326601;28;20326;-67
2023/07/18 13:27:40;;;;;;;5.55;2.22;;;;;;;26.56;35.45;99812.22;10322298;28;20712;-67
2023/07/18 13:32:43;;;;;;;4.05;2.50;;;;;;;25.65;35.71;99803.72;10327647;28;20237;-67
2023/07/18 13:37:45;;;;;;;3.88;2.20;;;;;;;27.01;35.13;99776.28;10329532;28;20284;-67
2023/07/18 13:42:47;;;;;;;3.22;2.35;;;;;;;27.46;35.10;99800.66;10321970;28;20225;-67
2023/07/18 13:47:49;;;;;;;4.03;2.20;;;;;;;28.01;34.20;99786.31;10321879;28;20325;-67
2023/07/18 13:52:51;;;;;;;4.15;1.92;;;;;;;27.17;35.21;99795.28;10320699;28;20249;-67
2023/07/18 13:57:53;;;;;;;3.75;2.33;;;;;;;27.49;34.08;99813.81;10325826;28;20242;-67
2023/07/18 14:02:55;;;;;;;4.60;2.40;;;;;;;25.77;35.13;99844.47;10317249;28;20245;-68
2023/07/18 14:07:57;;;;;;;6.35;2.05;;;;;;;28.32;33.37;99791.28;10321736;28;20238;-66
2023/07/18 14:12:59;;;;;;;4.55;2.20;;;;;;;27.77;34.88;99767.22;10320503;28;20245;-65
2023/07/18 14:18:00;;;;;;;4.78;3.35;;;;;;;27.67;34.19;99784.69;10325923;28;20264;-71
2023/07/18 14:23:02;;;;;;;3.83;2.25;;;;;;;27.65;34.97;99730.00;10328676;28;20229;-71
2023/07/18 14:28:04;;;;;;;4.68;2.53;;;;;;;27.41;34.70;99754.03;10320371;28;20233;-68
2023/07/18 14:33:06;;;;;;;4.13;2.40;;;;;;;27.00;34.71;99751.88;10326562;28;20325;-68
2023/07/18 14:38:08;;;;;;;3.03;2.45;;;;;;;27.16;35.15;99703.88;10326675;28;20233;-68
2023/07/18 14:43:10;;;;;;;3.95;2.28;;;;;;;26.93;34.65;99711.88;10324113;28;20291;-69
2023/07/18 14:48:12;;;;;;;2.53;2.33;;;;;;;28.30;33.85;99700.00;10325073;28;20248;-68
2023/07/18 14:53:14;;;;;;;6.03;2.58;;;;;;;28.42;34.03;99684.59;10327216;28;20320;-69
2023/07/18 14:58:16;;;;;;;3.42;2.40;;;;;;;27.58;34.55;99668.28;10316034;28;21401;-67
2023/07/18 15:03:18;;;;;;;3.50;2.65;;;;;;;27.25;34.30;99657.34;10316247;28;20305;-67
2023/07/18 15:08:20;;;;;;;4.13;2.58;;;;;;;27.74;34.16;99704.59;10326151;28;20328;-66
2023/07/18 15:13:21;;;;;;;4.53;2.40;;;;;;;28.06;33.79;99684.47;10328126;28;20303;-70
2023/07/18 15:18:23;;;;;;;4.63;2.58;;;;;;;28.29;33.29;99695.59;10325544;28;20328;-70
2023/07/18 15:23:25;;;;;;;5.03;2.78;;;;;;;27.83;34.08;99702.78;10331081;28;20316;-73
2023/07/18 15:28:27;;;;;;;4.03;2.42;;;;;;;28.35;33.91;99667.66;10319449;28;20377;-71
2023/07/18 15:33:28;;;;;;;3.13;2.40;;;;;;;28.09;33.95;99692.13;10320896;28;20280;-72
2023/07/18 15:38:30;;;;;;;4.85;2.47;;;;;;;28.28;32.67;99670.03;10329282;28;20324;-67
2023/07/18 15:43:32;;;;;;;4.47;2.58;;;;;;;27.53;33.73;99688.47;10321885;28;20512;-70
2023/07/18 15:48:34;;;;;;;3.05;2.53;;;;;;;28.62;33.20;99663.25;10321144;28;20230;-70
2023/07/18 15:53:36;;;;;;;3.45;2.30;;;;;;;27.34;34.98;99668.44;10331786;28;20756;-69
2023/07/18 15:58:38;;;;;;;6.32;2.55;;;;;;;27.57;35.04;99637.25;10322892;28;20360;-67
2023/07/18 16:03:39;;;;;;;3.88;2.45;;;;;;;27.58;35.00;99621.59;10328748;28;20667;-68
2023/07/18 16:08:41;;;;;;;4.57;2.90;;;;;;;26.97;36.10;99640.72;10323178;28;20261;-68
2023/07/18 16:13:45;;;;;;;4.25;2.45;;;;;;;27.75;35.08;99604.53;10327978;28;20735;-69
2023/07/18 16:18:51;;;;;;;5.57;2.90;;;;;;;28.16;34.88;99589.94;10326184;28;20249;-68
2023/07/18 16:23:53;;;;;;;6.53;2.47;;;;;;;26.69;35.60;99642.50;10327629;28;20242;-68
2023/07/18 16:28:55;;;;;;;3.47;2.53;;;;;;;27.14;35.53;99651.16;10330742;28;20236;-70
2023/07/18 16:33:57;;;;;;;3.00;2.53;;;;;;;26.98;36.13;99639.63;10327780;28;21401;-71
2023/07/18 16:38:58;;;;;;;5.28;3.13;;;;;;;27.08;36.15;99641.38;10332029;28;20316;-70
2023/07/18 16:44:00;;;;;;;4.20;2.80;;;;;;;27.42;36.23;99582.59;10326745;28;20824;-69
2023/07/18 16:49:03;;;;;;;4.78;2.58;;;;;;;27.07;36.73;99626.81;10333000;28;20232;-70
2023/07/18 16:54:05;;;;;;;3.58;2.40;;;;;;;26.90;37.08;99597.16;10328976;28;20229;-69
2023/07/18 16:59:07;;;;;;;4.20;2.75;;;;;;;26.03;37.60;99595.63;10324540;28;20674;-69
2023/07/18 17:04:09;;;;;;;4.43;2.85;;;;;;;27.30;36.80;99545.44;10329183;28;20744;-70
2023/07/18 17:09:10;;;;;;;5.13;2.70;;;;;;;27.34;37.15;99586.84;10327647;28;20241;-69
2023/07/18 17:14:12;;;;;;;4.25;2.72;;;;;;;24.98;39.78;99661.75;10327954;28;20312;-69
2023/07/18 17:19:14;;;;;;;4.15;2.72;;;;;;;26.43;38.18;99526.84;10326936;28;20281;-69
2023/07/18 17:24:16;;;;;;;3.45;2.28;;;;;;;26.23;37.85;99511.50;10327058;28;20222;-70
2023/07/18 17:29:19;;;;;;;3.97;2.42;;;;;;;26.98;36.25;99523.50;10322499;28;20604;-69
2023/07/18 17:34:20;;;;;;;3.90;2.60;;;;;;;27.36;36.60;99490.41;10329027;28;20229;-71
2023/07/18 17:39:23;;;;;;;3.40;2.42;;;;;;;28.02;35.87;99512.97;10327734;28;20264;-69
2023/07/18 17:44:25;;;;;;;4.25;2.25;;;;;;;27.80;36.17;99557.69;10325458;28;20233;-70
2023/07/18 17:49:27;;;;;;;3.67;2.33;;;;;;;25.93;38.32;99601.22;10327002;28;20229;-69
2023/07/18 17:54:28;;;;;;;3.53;2.22;;;;;;;26.50;37.62;99569.25;10329221;28;20223;-69
2023/07/18 17:59:30;;;;;;;7.95;3.05;;;;;;;26.93;37.37;99549.91;10322164;28;20240;-68
2023/07/18 18:04:32;;;;;;;3.60;2.30;;;;;;;26.72;37.58;99597.97;10329768;28;20243;-69
2023/07/18 18:09:34;;;;;;;4.30;2.30;;;;;;;26.45;37.58;99579.47;10323999;28;20273;-68
2023/07/18 18:14:37;;;;;;;5.10;2.60;;;;;;;26.96;37.04;99570.47;10326391;28;20225;-68
2023/07/18 18:19:38;;;;;;;4.45;2.42;;;;;;;26.12;38.72;99632.25;10319063;28;20240;-68
2023/07/18 18:24:41;;;;;;;3.95;2.67;;;;;;;24.73;41.32;99750.28;10324410;28;20341;-71
2023/07/18 18:29:42;;;;;;;3.85;2.78;;;;;;;26.11;39.85;99551.09;10325666;28;20236;-69
2023/07/18 18:34:44;;;;;;;4.38;2.95;;;;;;;26.26;39.96;99574.78;10328180;28;20348;-69
2023/07/18 18:40:06;;;;;;;3.45;2.50;;;;;;;26.62;40.71;99617.34;10325224;28;20232;-68
2023/07/18 18:45:08;;;;;;;6.13;2.78;;;;;;;25.40;43.68;99556.28;10321239;28;20230;-67
2023/07/18 18:50:10;;;;;;;5.40;3.17;;;;;;;24.59;45.69;99536.69;10326211;28;20783;-69
2023/07/18 18:55:13;;;;;;;4.93;2.97;;;;;;;24.94;44.77;99553.97;10325227;28;20228;-67
2023/07/18 19:00:21;;;;;;;4.85;3.03;;;;;;;24.68;45.14;99597.97;10321942;28;20950;-67
2023/07/18 19:05:23;;;;;;;3.38;3.00;;;;;;;23.72;47.54;99614.47;10315135;28;20689;-66
2023/07/18 19:10:26;;;;;;;8.38;3.08;;;;;;;25.55;44.33;99579.97;10327711;28;20625;-69
2023/07/18 19:15:28;;;;;;;5.40;2.92;;;;;;;25.12;45.37;99599.00;10322439;28;20233;-67
2023/07/18 19:20:30;;;;;;;4.18;3.28;;;;;;;25.36;44.52;99593.59;10317195;28;20234;-69
2023/07/18 19:25:31;;;;;;;3.75;2.53;;;;;;;24.44;44.77;99592.31;10318626;28;20239;-72
2023/07/18 19:30:33;;;;;;;4.30;3.17;;;;;;;23.57;48.74;99587.16;10323964;28;20243;-67
2023/07/18 19:35:36;;;;;;;6.47;3.22;;;;;;;24.88;45.10;99601.63;10319262;28;20744;-66
2023/07/18 19:40:37;;;;;;;4.35;2.97;;;;;;;24.38;46.51;99552.44;10327980;28;20663;-67
2023/07/18 19:45:39;;;;;;;5.47;3.15;;;;;;;25.81;43.89;99616.16;10325735;28;21009;-67
2023/07/18 19:50:42;;;;;;;5.95;3.47;;;;;;;24.21;46.16;99626.63;10326345;28;20238;-66
2023/07/18 19:55:45;;;;;;;7.38;4.03;;;;;;;24.87;45.39;99609.03;10320678;28;20241;-66
2023/07/18 20:00:46;;;;;;;5.00;3.33;;;;;;;24.81;45.72;99664.88;10327489;28;20237;-68
2023/07/18 20:05:48;;;;;;;6.28;3.70;;;;;;;23.85;46.69;99648.56;10326732;28;20237;-70
2023/07/18 20:10:50;;;;;;;5.80;3.30;;;;;;;22.87;49.64;99610.34;10328714;28;20241;-69
2023/07/18 20:15:54;;;;;;;4.22;2.90;;;;;;;24.54;46.13;99583.22;10329001;28;20485;-68
2023/07/18 20:20:55;;;;;;;7.10;3.60;;;;;;;26.07;43.42;99602.16;10325458;28;20280;-69
2023/07/18 20:25:58;;;;;;;8.38;3.30;;;;;;;23.80;47.29;99637.66;10322325;28;20236;-66
2023/07/18 20:31:00;;;;;;;6.70;3.45;;;;;;;23.79;47.67;99622.38;10328122;28;20355;-69
2023/07/18 20:36:02;;;;;;;4.60;3.20;;;;;;;24.39;47.14;99539.59;10323937;28;20229;-70
2023/07/18 20:41:04;;;;;;;5.00;3.55;;;;;;;24.45;47.06;99571.28;10328762;28;20230;-70
2023/07/18 20:46:12;;;;;;;4.35;3.63;;;;;;;23.78;47.78;99585.22;10320280;28;20221;-69
2023/07/18 20:51:14;;;;;;;7.00;4.25;;;;;;;24.66;46.63;99530.91;10321289;28;21004;-69
2023/07/18 20:56:16;;;;;;;6.00;3.58;;;;;;;24.33;47.79;99566.16;10327498;28;20234;-72
2023/07/18 21:01:18;;;;;;;5.95;3.67;;;;;;;24.31;47.25;99588.31;10324143;28;20656;-71
2023/07/18 21:06:20;;;;;;;5.15;3.60;;;;;;;23.84;48.24;99561.41;10327599;28;21052;-71
2023/07/18 21:11:22;;;;;;;4.97;3.25;;;;;;;22.68;49.96;99588.25;10328047;28;20225;-70
2023/07/18 21:16:24;;;;;;;7.95;4.00;;;;;;;23.05;49.55;99565.34;10327262;28;20237;-71
2023/07/18 21:21:26;;;;;;;5.32;3.83;;;;;;;23.31;49.28;99548.16;10320977;28;20716;-70
2023/07/18 21:26:28;;;;;;;6.53;3.38;;;;;;;22.55;50.33;99594.22;10322389;28;20662;-70
2023/07/18 21:31:29;;;;;;;7.30;3.75;;;;;;;23.32;48.79;99556.06;10327151;28;20284;-70
2023/07/18 21:36:31;;;;;;;4.82;3.20;;;;;;;23.95;46.42;99593.06;10318679;28;20268;-70
2023/07/18 21:41:33;;;;;;;5.22;3.72;;;;;;;23.81;46.99;99631.91;10326973;28;20333;-70
2023/07/18 21:46:35;;;;;;;4.85;3.35;;;;;;;22.48;49.51;99608.06;10320220;28;20225;-70
2023/07/18 21:51:40;;;;;;;4.90;3.50;;;;;;;23.75;47.29;99613.91;10321391;28;21004;-70
2023/07/18 21:56:42;;;;;;;5.45;3.80;;;;;;;22.80;49.18;99601.63;10317134;28;20811;-70
2023/07/18 22:01:45;;;;;;;6.22;4.00;;;;;;;24.09;47.40;99560.50;10324248;28;20234;-70
2023/07/18 22:06:47;;;;;;;5.78;3.88;;;;;;;23.19;48.56;99594.84;10326186;28;20366;-70
2023/07/18 22:11:51;;;;;;;6.20;3.97;;;;;;;23.48;48.25;99580.63;10323154;28;20230;-70
2023/07/18 22:16:53;;;;;;;6.50;3.97;;;;;;;23.91;47.14;99576.41;10326859;28;20301;-71
2023/07/18 22:21:56;;;;;;;4.57;3.22;;;;;;;23.45;48.49;99543.78;10319673;28;20238;-71
2023/07/18 22:26:58;;;;;;;7.32;4.10;;;;;;;22.58;50.65;99552.78;10317395;28;20365;-70
2023/07/18 22:32:00;;;;;;;5.60;3.80;;;;;;;23.01;49.22;99563.44;10325088;28;20221;-71
2023/07/18 22:37:01;;;;;;;7.07;4.28;;;;;;;21.91;52.12;99606.19;10316396;28;20237;-71
2023/07/18 22:42:18;;;;;;;8.00;4.43;;;;;;;22.83;50.19;99562.91;10322350;28;20233;-71
2023/07/18 22:47:19;;;;;;;8.27;4.38;;;;;;;22.78;50.24;99594.81;10319828;28;20955;-71
2023/07/18 22:52:21;;;;;;;6.57;4.32;;;;;;;22.87;49.97;99571.34;10324287;28;20221;-71
2023/07/18 22:57:23;;;;;;;8.93;4.38;;;;;;;22.48;50.78;99577.28;10318925;28;20240;-70
2023/07/18 23:02:25;;;;;;;10.18;4.75;;;;;;;23.07;50.03;99543.28;10316451;28;20242;-72
2023/07/18 23:07:27;;;;;;;7.40;4.82;;;;;;;23.46;49.04;99542.66;10322936;28;20331;-71
2023/07/18 23:12:28;;;;;;;5.68;4.25;;;;;;;22.65;50.87;99582.50;10323911;28;20217;-70
2023/07/18 23:17:30;;;;;;;6.07;4.70;;;;;;;23.17;49.23;99567.00;10313984;28;20221;-70
2023/07/18 23:22:32;;;;;;;6.63;5.00;;;;;;;22.11;51.71;99606.31;10323285;28;20213;-70
2023/07/18 23:27:34;;;;;;;6.32;4.50;;;;;;;22.44;51.28;99541.56;10357184;28;20960;-70